Time;durP1;ratioP1;P1;durP2;ratioP2;P2;SDS_P1;SDS_P2;PMS_P1;PMS_P2;Temp;Humidity;BMP_temperature;BMP_pressure;BME280_temperature;BME280_humidity;BME280_pressure;Samples;Min_cycle;Max_cycle;Signal;HPM_P1;HPM_P2
2022/08/23 00:01:12;;;;;;;0.50;0.50;;;20.10;99.90;;;;;;4446786;32;20131;-66
2022/08/23 00:03:38;;;;;;;0.45;0.40;;;20.10;99.90;;;;;;4444576;32;20434;-66
2022/08/23 00:06:04;;;;;;;0.37;0.37;;;20.10;99.90;;;;;;4430477;32;20130;-66
2022/08/23 00:08:30;;;;;;;0.32;0.32;;;20.10;99.90;;;;;;4446039;32;20463;-66
2022/08/23 00:10:56;;;;;;;0.77;0.60;;;19.90;99.90;;;;;;4444018;32;20068;-66
2022/08/23 00:13:22;;;;;;;0.65;0.65;;;19.80;99.90;;;;;;4448765;32;20568;-66
2022/08/23 00:15:47;;;;;;;0.30;0.30;;;19.70;99.90;;;;;;4441222;32;20544;-66
2022/08/23 00:18:15;;;;;;;0.40;0.40;;;19.60;99.90;;;;;;4449223;32;20188;-66
2022/08/23 00:20:41;;;;;;;0.30;0.30;;;19.50;99.90;;;;;;4445129;32;20069;-66
2022/08/23 00:23:06;;;;;;;0.40;0.40;;;19.50;99.90;;;;;;4447717;32;20087;-66
2022/08/23 00:25:32;;;;;;;0.50;0.50;;;19.40;99.90;;;;;;4444310;32;20123;-66
2022/08/23 00:27:58;;;;;;;1.30;0.68;;;19.30;99.90;;;;;;4447909;32;20441;-66
2022/08/23 00:30:23;;;;;;;1.87;0.73;;;19.40;99.90;;;;;;4444836;32;20069;-66
2022/08/23 00:32:49;;;;;;;2.08;0.60;;;19.50;99.90;;;;;;4448499;32;20077;-66
2022/08/23 00:35:16;;;;;;;0.40;0.40;;;19.50;99.90;;;;;;4440531;32;20147;-66
2022/08/23 00:37:42;;;;;;;0.32;0.32;;;19.50;99.90;;;;;;4441498;32;20057;-66
2022/08/23 00:40:11;;;;;;;1.10;0.60;;;19.50;99.90;;;;;;4448665;32;20072;-66
2022/08/23 00:48:27;;;;;;;0.35;0.35;;;19.70;99.90;;;;;;4435314;32;20069;-66
2022/08/23 00:51:01;;;;;;;0.62;0.62;;;19.60;99.90;;;;;;4447123;32;20084;-66
2022/08/23 00:53:31;;;;;;;1.35;0.50;;;19.60;99.90;;;;;;4448865;32;20203;-66
2022/08/23 00:56:00;;;;;;;0.50;0.50;;;19.60;99.90;;;;;;4441734;32;20543;-66
2022/08/23 00:58:27;;;;;;;0.40;0.40;;;19.50;99.90;;;;;;4443740;32;20069;-67
2022/08/23 01:00:54;;;;;;;0.30;0.30;;;19.40;99.90;;;;;;4444293;32;20077;-66
2022/08/23 01:03:23;;;;;;;0.40;0.40;;;19.30;99.90;;;;;;4448165;32;20521;-65
2022/08/23 01:06:04;;;;;;;0.85;0.50;;;19.30;99.90;;;;;;4436754;32;21906;-65
2022/08/23 01:08:31;;;;;;;0.30;0.30;;;19.30;99.90;;;;;;4443107;32;20671;-67
2022/08/23 01:11:09;;;;;;;0.40;0.40;;;19.30;99.90;;;;;;4449147;32;20112;-65
2022/08/23 01:13:41;;;;;;;1.08;0.90;;;19.30;99.90;;;;;;4444796;32;20085;-65
2022/08/23 01:16:14;;;;;;;0.55;0.55;;;19.30;99.90;;;;;;4447641;32;20056;-66
2022/08/23 01:18:41;;;;;;;3.50;1.00;;;19.30;99.90;;;;;;4445134;32;20070;-65
2022/08/23 01:21:15;;;;;;;0.40;0.40;;;19.30;99.90;;;;;;4444833;32;20104;-67
2022/08/23 01:23:46;;;;;;;0.60;0.60;;;19.30;99.90;;;;;;4447975;32;20429;-67
2022/08/23 01:26:13;;;;;;;0.70;0.70;;;19.30;99.90;;;;;;4431995;32;20609;-67
2022/08/23 01:28:39;;;;;;;0.37;0.37;;;19.30;99.90;;;;;;4448169;32;20072;-67
2022/08/23 01:31:06;;;;;;;0.50;0.50;;;19.40;99.90;;;;;;4447748;32;20107;-67
2022/08/23 01:33:32;;;;;;;0.37;0.37;;;19.30;99.90;;;;;;4446145;32;20119;-67
2022/08/23 01:35:58;;;;;;;0.50;0.50;;;19.30;99.90;;;;;;4431791;32;20060;-67
2022/08/23 01:38:25;;;;;;;0.90;0.65;;;19.20;99.90;;;;;;4444429;32;20139;-66
2022/08/23 01:40:50;;;;;;;1.35;1.02;;;19.30;99.90;;;;;;4443974;32;20111;-66
2022/08/23 01:43:18;;;;;;;0.68;0.57;;;19.20;99.90;;;;;;4441528;32;20544;-66
2022/08/23 01:45:45;;;;;;;1.17;0.75;;;19.30;99.90;;;;;;4441619;32;20084;-66
2022/08/23 01:48:11;;;;;;;0.40;0.40;;;19.30;99.90;;;;;;4445812;32;20078;-66
2022/08/23 01:50:36;;;;;;;0.60;0.60;;;19.30;99.90;;;;;;4446824;32;20069;-66
2022/08/23 01:53:02;;;;;;;0.40;0.40;;;19.40;99.90;;;;;;4443525;32;20089;-66
2022/08/23 01:55:28;;;;;;;0.30;0.30;;;19.40;99.90;;;;;;4447323;32;20060;-66
2022/08/23 01:57:57;;;;;;;1.08;0.70;;;19.40;99.90;;;;;;4446297;32;20100;-66
2022/08/23 02:00:29;;;;;;;0.57;0.50;;;19.40;99.90;;;;;;4446118;32;20065;-66
2022/08/23 02:02:54;;;;;;;0.93;0.70;;;19.30;99.90;;;;;;4448936;32;20427;-66
2022/08/23 02:05:20;;;;;;;0.90;0.52;;;19.30;99.90;;;;;;4437476;32;20068;-67
2022/08/23 02:07:46;;;;;;;0.30;0.30;;;19.30;99.90;;;;;;4439025;32;20076;-66
2022/08/23 02:10:12;;;;;;;0.50;0.50;;;19.40;99.90;;;;;;4441299;32;20124;-66
2022/08/23 02:12:38;;;;;;;0.40;0.40;;;19.30;99.90;;;;;;4445213;32;20139;-66
2022/08/23 02:15:04;;;;;;;0.50;0.50;;;19.30;99.90;;;;;;4446012;32;20101;-67
2022/08/23 02:17:30;;;;;;;0.77;0.60;;;19.30;99.90;;;;;;4443844;32;20109;-66
2022/08/23 02:19:55;;;;;;;0.50;0.50;;;19.30;99.90;;;;;;4443514;32;20081;-66
2022/08/23 02:22:21;;;;;;;0.90;0.52;;;19.20;99.90;;;;;;4444282;32;20080;-67
2022/08/23 02:24:47;;;;;;;0.95;0.40;;;19.10;99.90;;;;;;4440272;32;20069;-67
2022/08/23 02:27:15;;;;;;;0.45;0.45;;;19.10;99.90;;;;;;4441439;32;20513;-66
2022/08/23 02:29:43;;;;;;;0.30;0.30;;;19.20;99.90;;;;;;4441315;32;20085;-67
2022/08/23 02:32:11;;;;;;;0.45;0.45;;;19.20;99.90;;;;;;4439839;32;20154;-66
2022/08/23 02:34:37;;;;;;;0.47;0.40;;;19.10;99.90;;;;;;4431721;32;20080;-66
2022/08/23 02:37:03;;;;;;;0.52;0.52;;;19.20;99.90;;;;;;4416931;32;20169;-66
2022/08/23 02:39:29;;;;;;;0.40;0.40;;;19.30;99.90;;;;;;4435558;32;20106;-66
2022/08/23 02:41:54;;;;;;;0.32;0.32;;;19.30;99.90;;;;;;4446415;32;20061;-67
2022/08/23 02:44:20;;;;;;;0.30;0.30;;;19.40;99.90;;;;;;4449156;32;20065;-66
2022/08/23 02:46:46;;;;;;;0.30;0.30;;;19.50;99.90;;;;;;4433631;32;20176;-66
2022/08/23 02:49:12;;;;;;;6.32;0.80;;;19.40;99.90;;;;;;4451829;32;20084;-67
2022/08/23 02:51:38;;;;;;;0.93;0.40;;;19.40;99.90;;;;;;4432923;32;20520;-66
2022/08/23 02:54:05;;;;;;;0.55;0.55;;;19.50;99.90;;;;;;4432930;32;20065;-66
2022/08/23 02:56:31;;;;;;;0.50;0.50;;;19.40;99.90;;;;;;4447698;32;20052;-67
2022/08/23 02:58:57;;;;;;;0.50;0.50;;;19.50;99.90;;;;;;4452724;32;20183;-67
2022/08/23 03:01:27;;;;;;;0.30;0.30;;;19.50;99.90;;;;;;4447971;32;20061;-67
2022/08/23 03:03:53;;;;;;;0.28;0.28;;;19.50;99.90;;;;;;4424747;32;20151;-66
2022/08/23 03:06:18;;;;;;;0.73;0.70;;;19.40;99.90;;;;;;4424663;32;20165;-66
2022/08/23 03:08:44;;;;;;;0.30;0.30;;;19.40;99.90;;;;;;4448995;32;20069;-66
2022/08/23 03:11:13;;;;;;;0.30;0.30;;;19.40;99.90;;;;;;4445393;32;20105;-66
2022/08/23 03:13:41;;;;;;;0.30;0.30;;;19.40;99.90;;;;;;4450491;32;20097;-66
2022/08/23 03:16:08;;;;;;;0.90;0.52;;;19.50;99.90;;;;;;4448026;32;20417;-66
2022/08/23 03:18:35;;;;;;;0.40;0.40;;;19.50;99.90;;;;;;4450330;32;20654;-67
2022/08/23 03:21:02;;;;;;;1.48;0.82;;;19.50;99.90;;;;;;4436520;32;20058;-67
2022/08/23 03:23:28;;;;;;;0.50;0.50;;;19.50;99.90;;;;;;4436810;32;20070;-67
2022/08/23 03:25:56;;;;;;;0.30;0.30;;;19.40;99.90;;;;;;4445910;32;20438;-67
2022/08/23 03:28:22;;;;;;;0.37;0.37;;;19.40;99.90;;;;;;4435213;32;20101;-67
2022/08/23 03:30:47;;;;;;;0.30;0.30;;;19.30;99.90;;;;;;4447256;32;20576;-66
2022/08/23 03:33:14;;;;;;;2.47;0.98;;;19.30;99.90;;;;;;4443199;32;20069;-66
2022/08/23 03:35:40;;;;;;;0.40;0.40;;;19.40;99.90;;;;;;4429042;32;20332;-66
2022/08/23 03:38:06;;;;;;;0.30;0.30;;;19.40;99.90;;;;;;4437528;32;20081;-66
2022/08/23 03:40:31;;;;;;;4.87;1.67;;;19.50;99.90;;;;;;4442851;32;20080;-66
2022/08/23 03:42:56;;;;;;;0.30;0.30;;;19.50;99.90;;;;;;4439892;32;20430;-66
2022/08/23 03:45:22;;;;;;;1.30;1.20;;;19.40;99.90;;;;;;4438320;32;20119;-67
2022/08/23 03:47:47;;;;;;;0.40;0.40;;;19.40;99.90;;;;;;4436186;32;20078;-66
2022/08/23 03:50:13;;;;;;;0.40;0.40;;;19.40;99.90;;;;;;4438800;32;20096;-67
2022/08/23 03:52:38;;;;;;;3.33;1.55;;;19.30;99.90;;;;;;4442509;32;20061;-67
2022/08/23 03:55:04;;;;;;;0.50;0.50;;;19.30;99.90;;;;;;4443844;32;20516;-67
2022/08/23 03:57:30;;;;;;;1.73;0.90;;;19.10;99.90;;;;;;4439096;32;20126;-67
2022/08/23 03:59:58;;;;;;;0.80;0.80;;;19.10;99.90;;;;;;4425488;32;20085;-67
2022/08/23 04:02:24;;;;;;;0.32;0.32;;;19.10;99.90;;;;;;4439176;32;20073;-67
2022/08/23 04:04:49;;;;;;;18.42;0.85;;;19.00;99.90;;;;;;4441222;32;20098;-66
2022/08/23 04:07:19;;;;;;;1.00;0.47;;;19.00;99.90;;;;;;4427188;32;20112;-66
2022/08/23 04:09:45;;;;;;;1.45;0.62;;;19.00;99.90;;;;;;4427506;32;20053;-67
2022/08/23 04:12:12;;;;;;;0.82;0.55;;;19.00;99.90;;;;;;4426128;32;20608;-66
2022/08/23 04:14:37;;;;;;;0.55;0.55;;;19.00;99.90;;;;;;4428097;32;20753;-67
2022/08/23 04:17:03;;;;;;;0.45;0.45;;;18.90;99.90;;;;;;4438998;32;20082;-66
2022/08/23 04:19:29;;;;;;;0.60;0.35;;;18.90;99.90;;;;;;4439209;32;20076;-66
2022/08/23 04:21:55;;;;;;;1.95;0.50;;;18.90;99.90;;;;;;4418045;32;20470;-66
2022/08/23 04:24:21;;;;;;;0.47;0.47;;;18.90;99.90;;;;;;4398247;32;20509;-66
2022/08/23 04:26:47;;;;;;;3.20;2.05;;;18.90;99.90;;;;;;4432268;32;20410;-66
2022/08/23 04:29:15;;;;;;;0.60;0.60;;;18.90;99.90;;;;;;4404223;32;20120;-66
2022/08/23 04:31:42;;;;;;;0.40;0.40;;;19.00;99.90;;;;;;4444722;32;20090;-67
2022/08/23 04:34:07;;;;;;;0.70;0.70;;;18.90;99.90;;;;;;4446521;32;20062;-66
2022/08/23 04:36:42;;;;;;;0.40;0.40;;;19.00;99.90;;;;;;4435618;32;20093;-66
2022/08/23 04:39:08;;;;;;;0.90;0.65;;;19.10;99.90;;;;;;4443721;32;20501;-67
2022/08/23 04:42:34;;;;;;;0.52;0.52;;;19.00;99.90;;;;;;4441125;32;20520;-66
2022/08/23 04:44:20;;;;;;;0.50;0.50;;;19.00;99.90;;;;;;4444193;32;20073;-66
2022/08/23 04:46:47;;;;;;;0.40;0.40;;;19.00;99.90;;;;;;4442269;32;20065;-66
2022/08/23 04:49:13;;;;;;;0.55;0.55;;;19.00;99.90;;;;;;4433879;32;20069;-67
2022/08/23 04:51:38;;;;;;;0.40;0.40;;;19.00;99.90;;;;;;4436632;32;20093;-66
2022/08/23 04:54:04;;;;;;;1.08;0.50;;;18.90;99.90;;;;;;4421721;32;20081;-66
2022/08/23 04:56:30;;;;;;;0.40;0.40;;;19.00;99.90;;;;;;4444233;32;20088;-66
2022/08/23 04:58:56;;;;;;;0.55;0.55;;;18.90;99.90;;;;;;4442721;32;20061;-66
2022/08/23 05:01:24;;;;;;;0.30;0.30;;;19.00;99.90;;;;;;4434796;32;20718;-66
2022/08/23 05:03:50;;;;;;;0.30;0.30;;;19.00;99.90;;;;;;4410821;32;20089;-66
2022/08/23 05:06:16;;;;;;;0.40;0.40;;;19.00;99.90;;;;;;4396603;32;20422;-66
2022/08/23 05:08:41;;;;;;;0.47;0.47;;;19.10;99.90;;;;;;4412570;32;20500;-66
2022/08/23 05:11:08;;;;;;;0.45;0.45;;;19.00;99.90;;;;;;4433060;32;20136;-66
2022/08/23 05:13:35;;;;;;;0.30;0.30;;;19.10;99.90;;;;;;4411962;32;20154;-66
2022/08/23 05:16:01;;;;;;;0.60;0.60;;;19.10;99.90;;;;;;4434468;32;20069;-67
2022/08/23 05:18:26;;;;;;;12.07;0.75;;;19.20;99.90;;;;;;4343429;32;20424;-66
2022/08/23 05:20:52;;;;;;;1.98;0.88;;;19.20;99.90;;;;;;4363007;32;20481;-67
2022/08/23 05:23:18;;;;;;;0.40;0.40;;;19.10;99.90;;;;;;4382350;32;21126;-66
2022/08/23 05:25:48;;;;;;;0.50;0.50;;;19.20;99.90;;;;;;4393550;32;20913;-66
2022/08/23 05:28:15;;;;;;;3.12;1.52;;;19.20;99.90;;;;;;4399128;32;20882;-66
2022/08/23 05:30:41;;;;;;;0.88;0.73;;;19.20;99.90;;;;;;4367684;32;20455;-66
2022/08/23 05:33:07;;;;;;;0.40;0.40;;;19.10;99.90;;;;;;4372637;32;20096;-67
2022/08/23 05:35:34;;;;;;;0.40;0.40;;;19.20;99.90;;;;;;4371017;32;20105;-67
2022/08/23 05:38:02;;;;;;;3.87;0.62;;;19.20;99.90;;;;;;4410421;32;20383;-67
2022/08/23 05:40:29;;;;;;;0.40;0.40;;;19.20;99.90;;;;;;4417536;32;20504;-66
2022/08/23 05:42:55;;;;;;;0.40;0.40;;;19.20;99.90;;;;;;4421079;32;20268;-66
2022/08/23 05:45:21;;;;;;;1.85;1.00;;;19.20;99.90;;;;;;4418873;32;20260;-66
2022/08/23 05:47:47;;;;;;;0.90;0.80;;;19.30;99.90;;;;;;4417286;32;20241;-66
2022/08/23 05:50:13;;;;;;;0.62;0.62;;;19.30;99.90;;;;;;4418032;32;20076;-67
2022/08/23 05:52:39;;;;;;;2.17;0.73;;;19.30;99.90;;;;;;4419628;32;20274;-69
2022/08/23 05:55:06;;;;;;;0.30;0.30;;;19.40;99.90;;;;;;4426501;32;20104;-66
2022/08/23 05:57:36;;;;;;;0.93;0.70;;;19.40;99.90;;;;;;4420963;32;20165;-66
2022/08/23 06:00:08;;;;;;;0.45;0.45;;;19.50;99.90;;;;;;4396787;32;20749;-67
2022/08/23 06:02:34;;;;;;;0.40;0.40;;;19.50;99.90;;;;;;4408525;32;21141;-67
2022/08/23 06:05:00;;;;;;;2.22;1.25;;;19.50;99.90;;;;;;4415710;32;20097;-67
2022/08/23 06:07:25;;;;;;;0.90;0.75;;;19.50;99.90;;;;;;4424581;32;20747;-67
2022/08/23 06:09:51;;;;;;;0.52;0.52;;;19.50;99.90;;;;;;4426370;32;20081;-67
2022/08/23 06:12:17;;;;;;;0.52;0.52;;;19.60;99.90;;;;;;4428121;32;20104;-67
2022/08/23 06:14:42;;;;;;;1.25;1.02;;;19.60;99.90;;;;;;4429322;32;20125;-67
2022/08/23 06:17:09;;;;;;;0.65;0.65;;;19.60;99.90;;;;;;4417880;32;20080;-67
2022/08/23 06:19:34;;;;;;;0.73;0.73;;;19.60;99.90;;;;;;4419842;32;21324;-67
2022/08/23 06:22:00;;;;;;;8.65;0.50;;;19.60;99.90;;;;;;4416338;32;21157;-67
2022/08/23 06:24:25;;;;;;;1.20;0.88;;;19.60;99.90;;;;;;4424480;32;20083;-67
2022/08/23 06:26:51;;;;;;;5.57;1.05;;;19.60;99.90;;;;;;4425108;32;20139;-67
2022/08/23 06:29:18;;;;;;;0.32;0.32;;;19.60;99.90;;;;;;4407350;32;20392;-67
2022/08/23 06:31:47;;;;;;;1.00;0.85;;;19.70;99.90;;;;;;4409935;32;20097;-65
2022/08/23 06:34:18;;;;;;;0.45;0.45;;;19.80;99.90;;;;;;4381430;32;20812;-66
2022/08/23 06:36:46;;;;;;;0.75;0.70;;;19.90;99.90;;;;;;4420181;32;20536;-66
2022/08/23 06:39:13;;;;;;;0.60;0.60;;;20.00;99.90;;;;;;4410240;32;20184;-64
2022/08/23 06:41:40;;;;;;;1.25;0.93;;;19.90;99.90;;;;;;4394542;32;21075;-66
2022/08/23 06:44:07;;;;;;;1.23;0.73;;;19.90;99.90;;;;;;4426501;32;20113;-65
2022/08/23 06:46:33;;;;;;;0.57;0.50;;;19.90;99.90;;;;;;4420050;32;20839;-65
2022/08/23 06:48:59;;;;;;;0.77;0.77;;;20.00;99.90;;;;;;4405422;32;21106;-66
2022/08/23 06:51:28;;;;;;;0.43;0.43;;;20.10;99.90;;;;;;4410335;32;20444;-66
2022/08/23 06:53:57;;;;;;;0.90;0.73;;;20.20;99.90;;;;;;4409075;32;20831;-66
2022/08/23 06:56:24;;;;;;;2.67;1.08;;;20.20;99.90;;;;;;4409871;32;20101;-67
2022/08/23 06:58:50;;;;;;;0.47;0.47;;;20.20;99.90;;;;;;4402688;32;20926;-66
2022/08/23 07:01:31;;;;;;;0.32;0.32;;;20.10;99.90;;;;;;4394453;32;21710;-69
2022/08/23 07:03:57;;;;;;;0.30;0.30;;;20.10;99.90;;;;;;4406782;32;20187;-67
2022/08/23 07:06:23;;;;;;;2.33;0.70;;;20.30;99.90;;;;;;4405367;32;21808;-67
2022/08/23 07:08:50;;;;;;;9.80;0.77;;;20.30;99.90;;;;;;4421450;32;20435;-68
2022/08/23 07:11:17;;;;;;;1.73;1.50;;;20.40;99.90;;;;;;4424419;32;20513;-67
2022/08/23 07:13:42;;;;;;;1.15;1.05;;;20.40;99.90;;;;;;4407319;32;20310;-66
2022/08/23 07:16:08;;;;;;;0.30;0.30;;;20.40;99.90;;;;;;4406052;32;20077;-67
2022/08/23 07:18:33;;;;;;;0.37;0.37;;;20.50;99.90;;;;;;4409414;32;20170;-67
2022/08/23 07:21:01;;;;;;;0.50;0.50;;;20.50;99.90;;;;;;4425767;32;20480;-66
2022/08/23 07:23:31;;;;;;;0.37;0.37;;;20.60;99.90;;;;;;4398116;32;20524;-65
2022/08/23 07:25:58;;;;;;;0.77;0.77;;;20.60;99.90;;;;;;4401677;32;20666;-67
2022/08/23 07:28:24;;;;;;;0.60;0.60;;;20.60;99.90;;;;;;4394844;32;20595;-67
2022/08/23 07:30:49;;;;;;;0.40;0.40;;;20.60;99.90;;;;;;4391538;32;20937;-65
2022/08/23 07:33:15;;;;;;;0.82;0.82;;;20.70;99.90;;;;;;4385687;32;20446;-66
2022/08/23 07:35:50;;;;;;;5.05;1.60;;;20.70;99.90;;;;;;4407310;32;20266;-66
2022/08/23 07:38:16;;;;;;;0.70;0.37;;;20.70;99.90;;;;;;4410499;32;20304;-66
2022/08/23 07:40:42;;;;;;;0.28;0.28;;;20.80;99.90;;;;;;4408707;32;20300;-66
2022/08/23 07:43:07;;;;;;;0.65;0.60;;;20.90;99.90;;;;;;4422233;32;20128;-66
2022/08/23 07:45:35;;;;;;;0.40;0.40;;;20.90;99.90;;;;;;4423324;32;20092;-66
2022/08/23 07:48:01;;;;;;;0.35;0.35;;;20.90;99.90;;;;;;4416732;32;20246;-65
2022/08/23 07:50:28;;;;;;;0.90;0.60;;;21.00;99.90;;;;;;4407738;32;20120;-69
2022/08/23 07:52:53;;;;;;;0.70;0.70;;;21.10;99.90;;;;;;4409340;32;20131;-66
2022/08/23 07:55:19;;;;;;;0.50;0.50;;;21.20;99.90;;;;;;4426361;32;20516;-66
2022/08/23 07:57:45;;;;;;;5.30;0.75;;;21.20;99.90;;;;;;4426653;32;20150;-65
2022/08/23 08:00:10;;;;;;;0.30;0.30;;;21.10;99.90;;;;;;4410528;32;20178;-66
2022/08/23 08:02:36;;;;;;;0.62;0.62;;;21.20;99.90;;;;;;4411751;32;20928;-66
2022/08/23 08:05:02;;;;;;;1.20;0.68;;;21.20;99.90;;;;;;4423536;32;20085;-66
2022/08/23 08:07:27;;;;;;;0.40;0.40;;;21.20;99.90;;;;;;4419425;32;20092;-66
2022/08/23 08:09:52;;;;;;;0.22;0.22;;;21.20;99.90;;;;;;4428535;32;20805;-65
2022/08/23 08:12:18;;;;;;;0.40;0.40;;;21.30;99.90;;;;;;4421690;32;20081;-66
2022/08/23 08:14:47;;;;;;;0.40;0.40;;;21.40;99.90;;;;;;4424237;32;20170;-66
2022/08/23 08:17:12;;;;;;;0.82;0.65;;;21.40;99.90;;;;;;4416571;32;20936;-65
2022/08/23 08:19:38;;;;;;;0.40;0.40;;;21.50;99.90;;;;;;4414177;32;20100;-65
2022/08/23 08:22:04;;;;;;;1.55;1.08;;;21.50;99.90;;;;;;4418478;32;20520;-67
2022/08/23 08:24:29;;;;;;;0.40;0.40;;;21.40;99.90;;;;;;4421825;32;20092;-65
2022/08/23 08:26:55;;;;;;;0.75;0.60;;;21.50;99.90;;;;;;4429808;32;20401;-65
2022/08/23 08:29:20;;;;;;;0.70;0.70;;;21.50;99.90;;;;;;4420323;32;20070;-63
2022/08/23 08:31:47;;;;;;;0.40;0.40;;;21.60;99.90;;;;;;4416039;32;116755;-62
2022/08/23 08:34:13;;;;;;;0.40;0.40;;;21.70;99.90;;;;;;4425968;32;20708;-64
2022/08/23 08:36:43;;;;;;;0.40;0.40;;;21.70;99.90;;;;;;4424130;32;20106;-64
2022/08/23 08:39:12;;;;;;;0.60;0.60;;;21.70;99.90;;;;;;4424326;32;20164;-64
2022/08/23 08:42:03;;;;;;;0.30;0.30;;;21.70;99.90;;;;;;4429202;32;20101;-66
2022/08/23 08:44:53;;;;;;;0.65;0.65;;;21.80;99.90;;;;;;4427891;32;20080;-65
2022/08/23 08:47:32;;;;;;;0.30;0.30;;;21.80;99.90;;;;;;4416083;32;20673;-63
2022/08/23 08:50:02;;;;;;;0.62;0.47;;;21.90;99.90;;;;;;4418882;32;20081;-64
2022/08/23 08:52:34;;;;;;;0.32;0.32;;;22.00;99.90;;;;;;4426646;32;20994;-65
2022/08/23 08:55:05;;;;;;;0.57;0.57;;;22.10;99.90;;;;;;4414031;32;20099;-64
2022/08/23 08:57:39;;;;;;;0.30;0.30;;;22.10;99.90;;;;;;4428447;32;20302;-63
2022/08/23 09:00:14;;;;;;;0.30;0.30;;;22.20;99.90;;;;;;4405975;32;20427;-63
2022/08/23 09:02:41;;;;;;;0.80;0.77;;;22.30;99.90;;;;;;4418833;32;20072;-63
2022/08/23 09:05:15;;;;;;;0.45;0.45;;;22.30;99.90;;;;;;4421009;32;20133;-64
2022/08/23 09:08:20;;;;;;;1.10;0.57;;;22.40;99.90;;;;;;4426916;32;20384;-64
2022/08/23 09:11:09;;;;;;;0.35;0.35;;;22.40;99.90;;;;;;4411824;32;20068;-65
2022/08/23 09:14:12;;;;;;;3.72;1.35;;;22.50;99.90;;;;;;4411264;32;20135;-65
2022/08/23 09:16:52;;;;;;;0.40;0.40;;;22.70;99.90;;;;;;4417684;32;21438;-66
2022/08/23 09:19:19;;;;;;;0.30;0.30;;;22.70;99.90;;;;;;4400820;32;20116;-64
2022/08/23 09:21:55;;;;;;;0.20;0.20;;;22.60;99.90;;;;;;4395308;32;20114;-66
2022/08/23 09:24:21;;;;;;;0.37;0.30;;;22.60;99.90;;;;;;4383826;32;20287;-65
2022/08/23 09:26:47;;;;;;;0.30;0.30;;;22.70;99.90;;;;;;4392126;32;20118;-66
2022/08/23 09:29:17;;;;;;;0.40;0.40;;;22.80;99.90;;;;;;4396755;32;20422;-65
2022/08/23 09:31:47;;;;;;;;;;;22.90;99.90;;;;;;4407943;32;20480;-65
2022/08/23 09:34:35;;;;;;;0.45;0.45;;;23.00;99.90;;;;;;4400994;32;19975;-65
2022/08/23 09:37:21;;;;;;;0.30;0.30;;;23.10;99.90;;;;;;4411033;32;20085;-65
2022/08/23 09:39:52;;;;;;;2.53;1.00;;;23.10;99.90;;;;;;4413572;32;20104;-64
2022/08/23 09:42:30;;;;;;;0.77;0.77;;;23.20;99.90;;;;;;4408762;32;20086;-65
2022/08/23 09:44:56;;;;;;;0.20;0.20;;;23.40;99.90;;;;;;4413461;32;20105;-64
2022/08/23 09:47:30;;;;;;;0.52;0.52;;;23.40;99.90;;;;;;4406081;32;20081;-64
2022/08/23 09:50:07;;;;;;;0.28;0.28;;;23.50;99.90;;;;;;4412279;32;20084;-64
2022/08/23 09:52:36;;;;;;;0.20;0.20;;;23.50;99.90;;;;;;4404175;32;20077;-64
2022/08/23 09:55:30;;;;;;;0.30;0.30;;;23.50;99.90;;;;;;4396786;32;20280;-64
2022/08/23 09:57:57;;;;;;;0.30;0.30;;;23.40;99.90;;;;;;4413488;32;20345;-64
2022/08/23 10:00:32;;;;;;;0.52;0.52;;;23.50;99.90;;;;;;4402840;32;20117;-65
2022/08/23 10:03:21;;;;;;;0.35;0.35;;;23.70;99.90;;;;;;4409930;32;20369;-64
2022/08/23 10:05:51;;;;;;;0.30;0.30;;;23.70;99.90;;;;;;4415137;32;20602;-64
2022/08/23 10:08:31;;;;;;;0.32;0.32;;;23.70;99.90;;;;;;4406651;32;20503;-65
2022/08/23 10:11:05;;;;;;;3.00;0.98;;;23.90;99.90;;;;;;4412060;32;20689;-65
2022/08/23 10:13:31;;;;;;;0.30;0.30;;;23.80;99.90;;;;;;4413196;32;20593;-64
2022/08/23 10:16:22;;;;;;;0.77;0.37;;;23.80;99.90;;;;;;4414391;32;20085;-66
2022/08/23 10:19:00;;;;;;;0.40;0.40;;;23.80;99.90;;;;;;4398793;32;20076;-65
2022/08/23 10:21:52;;;;;;;1.60;0.47;;;23.90;99.90;;;;;;4408968;32;20430;-64
2022/08/23 10:24:30;;;;;;;0.32;0.32;;;23.90;99.90;;;;;;4417332;32;21232;-64
2022/08/23 10:29:47;;;;;;;0.20;0.20;;;23.90;99.90;;;;;;4421574;32;20081;-67
2022/08/23 10:30:19;;;;;;;0.20;0.20;;;24.00;99.90;;;;;;4402935;32;20080;-64
2022/08/23 10:33:11;;;;;;;0.35;0.35;;;24.10;99.90;;;;;;4415080;32;20349;-65
2022/08/23 10:35:48;;;;;;;0.20;0.20;;;24.10;99.90;;;;;;4422563;32;20520;-66
2022/08/23 10:38:37;;;;;;;0.20;0.20;;;24.10;99.90;;;;;;4420528;32;20094;-66
2022/08/23 10:41:16;;;;;;;0.43;0.43;;;24.20;99.90;;;;;;4424928;32;20057;-66
2022/08/23 10:44:10;;;;;;;0.35;0.35;;;24.30;99.90;;;;;;4429181;32;20134;-66
2022/08/23 10:46:43;;;;;;;5.28;1.37;;;24.40;99.90;;;;;;4411317;32;20402;-64
2022/08/23 10:49:12;;;;;;;0.20;0.20;;;24.40;99.90;;;;;;4405148;32;20160;-64
2022/08/23 10:51:43;;;;;;;0.20;0.20;;;24.50;99.90;;;;;;4406343;32;20558;-63
2022/08/23 10:54:17;;;;;;;2.75;0.62;;;24.50;99.90;;;;;;4410087;32;20126;-66
2022/08/23 10:56:43;;;;;;;0.22;0.22;;;24.50;99.90;;;;;;4403549;32;20251;-66
2022/08/23 10:59:13;;;;;;;0.17;0.17;;;24.50;99.90;;;;;;4416521;32;20282;-65
2022/08/23 11:02:13;;;;;;;0.85;0.40;;;24.60;99.90;;;;;;4422670;32;20828;-64
2022/08/23 11:07:18;;;;;;;0.10;0.10;;;24.70;99.90;;;;;;4411001;32;20125;-65
2022/08/23 11:08:07;;;;;;;0.28;0.28;;;24.90;99.90;;;;;;4408745;32;20069;-65
2022/08/23 11:10:48;;;;;;;0.20;0.20;;;24.90;99.90;;;;;;4417325;32;20456;-65
2022/08/23 11:13:17;;;;;;;0.40;0.40;;;24.90;99.90;;;;;;4411190;32;20077;-65
2022/08/23 11:15:53;;;;;;;0.20;0.20;;;25.00;99.90;;;;;;4416696;32;20588;-66
2022/08/23 11:18:41;;;;;;;0.28;0.28;;;25.10;99.90;;;;;;4408384;32;20761;-65
2022/08/23 11:21:32;;;;;;;0.20;0.20;;;25.20;99.90;;;;;;4408993;32;21077;-65
2022/08/23 11:24:01;;;;;;;1.30;0.30;;;25.30;99.90;;;;;;4416615;32;20070;-65
2022/08/23 11:26:32;;;;;;;0.75;0.25;;;25.30;99.90;;;;;;4417694;32;20108;-65
2022/08/23 11:29:09;;;;;;;0.20;0.20;;;25.40;99.90;;;;;;4411630;32;20093;-65
2022/08/23 11:32:12;;;;;;;0.30;0.30;;;25.60;99.90;;;;;;4408040;32;20134;-65
2022/08/23 11:35:04;;;;;;;0.17;0.17;;;26.00;99.90;;;;;;4406921;32;20609;-65
2022/08/23 11:37:49;;;;;;;0.20;0.20;;;26.10;99.90;;;;;;4397880;32;20128;-65
2022/08/23 11:40:36;;;;;;;0.30;0.30;;;26.10;99.90;;;;;;4410160;32;20140;-66
2022/08/23 11:43:11;;;;;;;0.25;0.25;;;26.40;99.90;;;;;;4409026;32;20614;-66
2022/08/23 11:45:45;;;;;;;0.20;0.20;;;26.70;99.90;;;;;;4421713;32;20077;-64
2022/08/23 11:48:13;;;;;;;0.20;0.20;;;26.70;99.90;;;;;;4412650;32;21823;-65
2022/08/23 11:50:45;;;;;;;0.20;0.20;;;26.70;99.90;;;;;;4419148;32;20110;-65
2022/08/23 11:53:31;;;;;;;0.28;0.28;;;26.90;99.90;;;;;;4406343;32;20097;-65
2022/08/23 11:56:11;;;;;;;13.35;0.50;;;26.70;99.90;;;;;;4421844;32;20098;-65
2022/08/23 11:59:04;;;;;;;0.35;0.30;;;26.70;99.90;;;;;;4412408;32;20096;-65
2022/08/23 12:01:33;;;;;;;0.93;0.73;;;27.60;99.90;;;;;;4412712;32;20109;-65
2022/08/23 12:04:10;;;;;;;0.10;0.10;;;28.20;99.70;;;;;;4414025;32;22205;-65
2022/08/23 12:06:40;;;;;;;0.60;0.28;;;28.70;99.00;;;;;;4386820;32;20108;-65
2022/08/23 12:09:24;;;;;;;0.10;0.10;;;28.70;98.70;;;;;;4417302;32;20104;-65
2022/08/23 12:12:12;;;;;;;3.25;0.65;;;28.30;98.50;;;;;;4415712;32;20799;-65
2022/08/23 12:14:44;;;;;;;0.10;0.10;;;28.30;98.30;;;;;;4406414;32;20104;-65
2022/08/23 12:17:15;;;;;;;0.20;0.15;;;27.90;98.50;;;;;;4416362;32;20097;-66
2022/08/23 12:19:45;;;;;;;0.10;0.10;;;27.80;99.10;;;;;;4420707;32;20532;-65
2022/08/23 12:22:12;;;;;;;;;;;27.70;99.30;;;;;;4413386;32;22155;-65
2022/08/23 12:24:43;;;;;;;0.20;0.20;;;27.60;99.30;;;;;;4415688;32;20039;-66
2022/08/23 12:27:33;;;;;;;0.22;0.20;;;27.50;99.60;;;;;;4417705;32;20121;-66
2022/08/23 12:30:07;;;;;;;1.35;0.30;;;27.20;99.10;;;;;;4416847;32;21829;-65
2022/08/23 12:32:50;;;;;;;3.65;0.73;;;26.80;99.90;;;;;;4408140;32;20077;-65
2022/08/23 12:35:43;;;;;;;0.68;0.68;;;26.60;99.90;;;;;;4413810;32;20068;-66
2022/08/23 12:38:31;;;;;;;0.15;0.15;;;26.60;99.90;;;;;;4390940;32;20160;-65
2022/08/23 12:40:57;;;;;;;0.17;0.17;;;27.20;99.50;;;;;;4410167;32;20195;-66
2022/08/23 12:43:27;;;;;;;0.20;0.20;;;28.00;98.60;;;;;;4434065;32;20670;-65
2022/08/23 12:45:55;;;;;;;0.52;0.52;;;29.00;97.80;;;;;;4418579;32;20392;-66
2022/08/23 12:48:25;;;;;;;0.40;0.40;;;29.70;96.40;;;;;;4395338;32;20093;-66
2022/08/23 12:50:55;;;;;;;0.20;0.20;;;30.20;94.70;;;;;;4416859;32;20065;-66
2022/08/23 12:53:32;;;;;;;1.08;0.43;;;30.50;94.20;;;;;;4400401;32;20611;-66
2022/08/23 12:56:02;;;;;;;0.52;0.52;;;30.70;92.90;;;;;;4422198;32;20290;-66
2022/08/23 12:58:31;;;;;;;0.20;0.20;;;30.80;92.90;;;;;;4410148;32;20823;-66
2022/08/23 13:01:01;;;;;;;0.40;0.40;;;31.30;91.60;;;;;;4423321;32;20630;-67
2022/08/23 13:03:35;;;;;;;0.25;0.25;;;31.50;90.80;;;;;;4411736;32;20139;-66
2022/08/23 13:06:06;;;;;;;0.20;0.20;;;31.80;90.60;;;;;;4420841;32;20294;-66
2022/08/23 13:08:43;;;;;;;0.35;0.35;;;31.70;90.50;;;;;;4422826;32;20065;-66
2022/08/23 13:11:10;;;;;;;0.40;0.40;;;31.50;88.90;;;;;;4422309;32;20082;-66